Airfield :
LOGIN :

Register | Disclaimer

   EN    FR    IT 

 










Legend :    VFR   Marginal VFR   IFR   Intensive IFR   Very Intensive IFR
Visi :
Ceiling :
>= 8 km
>= 3000ft
5 to 8 km
1000 to 3000 ft
1500m to 5 km
500 to 1000 ft
800 to 1500m
200 to 500 ft
< 800m
< 200 ft
Symbols :   Thunderstorms  Fog  Heavy snow  Heavy precipitations  Wind > 20 kt
SIGMETs :     Misc.  Thunderstorms  Icing  Turbulence  Mountain Waves  Volcanic Ashes






- Airport Elevation : 257 ft
- IATA code : MAN


EGCC - Manchester

CURRENT METAR :
  • 211320Z 24005KT 9999 4000S SCT007TCU SCT020 BKN040 14/14 Q0993

EXPIRED METARs :
  • 211250Z AUTO 24007KT 1900 +RA BKN007/// BKN018/// //////TCU 15/14 Q0993 RESHRA TEMPO RA
  • 211220Z AUTO 21005KT 170V240 9999 BKN010 15/14 Q0992 TEMPO SCT010
  • 211150Z AUTO 20004KT 150V230 9999 BKN009 15/14 Q0992 TEMPO SCT009
  • 211120Z AUTO VRB03KT 9999 FEW009 15/14 Q0992 NOSIG
  • 211050Z AUTO VRB02KT 9999 FEW008 15/14 Q0993 NOSIG

TAF AMD TAF EGCC
Valid from the 21 at 13:00 until the 22 at 18:00 UTC


211303Z 2113/2218 25007KT 9999 FEW008 SCT020
TEMPO 2113/2117 7000 RA BKN010
PROB30
TEMPO 2113/2115 3000 +RA BKN007
PROB40
TEMPO 2119/2124 BKN012
PROB30
TEMPO 2200/2215 7000 SHRA
ATIS : +44 161 499 2324



MET'MAP, your aeronautical weather chart ! - Copyright ORBIFLY December 2007 - Disclaimer

ORBIFLY MET'MAP TEAM :

Programming & Development : Alexandra Zaïnal
Concept & original design : Baudouin d'Aumeries
Assistance for programming : Marc-Olivier Méhu
Technical & hardware support : Manuel Goepfert

Contact : metmap@orbifly.com




SOURCES & CREDITS :

   NOAA